Lexington, New York
Current Conditions -  °F | °C
As of 11:35 AM on Tuesday 21 Oct 2014 (Local Time) from KMSV Reporting Station
Overcast Overcast  
Wind Chill: 43°   Ceiling: 1800
Heat Index: 46°   Visibility: 2.5mi
Dew Point: 46°   Wind: 7mph
Humidity: 100%   Direction: 90°E
Pressure: 29.91"   Gusts: NA
Location:  42.24°N, 74.37°W
Report Text: KMSV 211535Z AUTO 09006KT 2 1/2SM SCT003 BKN018 OVC028 08/08 A2991 RMK AO1
Loading
Personal Weather Stations






























Interactive Weather Map
Tropical Storm Tracking
New forecast layout! Learn more

10-Day Weather Forecast

Advertisements
Track Severe Weather on mobile